Time,TemperatureF,DewpointF,PressureIn,WindDirection,WindDirectionDegrees,WindSpeedMPH,WindSpeedGustMPH,Humidity,HourlyPrecipIn,Conditions,Clouds,dailyrainin,SoftwareType,DateUTC
2013-01-11 00:03:00,22.5,14.5,28.76,SW,225,0.0,2.0,71,0.00,,,0.02,meteohub,2013-01-11 05:03:00,
2013-01-11 00:04:00,22.5,14.5,28.77,SE,135,2.0,2.0,71,0.00,,,0.02,meteohub,2013-01-11 05:04:00,
2013-01-11 00:06:00,22.3,14.4,28.77,SE,135,2.0,2.0,71,0.00,,,0.00,meteohub,2013-01-11 05:06:00,
2013-01-11 00:11:00,22.5,14.5,28.76,South,180,2.0,2.0,71,0.00,,,0.00,meteohub,2013-01-11 05:11:00,
2013-01-11 00:16:00,22.5,14.7,28.76,NE,45,1.0,2.0,72,0.00,,,0.00,meteohub,2013-01-11 05:16:00,
2013-01-11 00:21:00,22.3,14.7,28.76,NW,315,1.0,2.0,72,0.00,,,0.00,meteohub,2013-01-11 05:21:00,
2013-01-11 00:26:00,22.3,14.7,28.76,NW,315,0.0,2.0,72,0.00,,,0.00,meteohub,2013-01-11 05:26:00,
2013-01-11 00:31:00,22.1,14.5,28.77,South,180,1.0,2.0,72,0.00,,,0.00,meteohub,2013-01-11 05:31:00,
2013-01-11 00:36:00,21.9,14.4,28.77,East,90,2.0,2.0,72,0.00,,,0.00,meteohub,2013-01-11 05:36:00,
2013-01-11 00:41:00,21.7,14.2,28.75,East,90,0.0,2.0,72,0.00,,,0.00,meteohub,2013-01-11 05:41:00,
2013-01-11 00:46:00,21.6,14.0,28.76,West,270,2.0,2.0,72,0.00,,,0.00,meteohub,2013-01-11 05:46:00,
2013-01-11 00:51:00,21.6,14.0,28.75,West,270,2.0,2.0,72,0.00,,,0.00,meteohub,2013-01-11 05:51:00,
2013-01-11 00:56:00,21.6,14.0,28.76,NE,45,2.0,2.0,72,0.00,,,0.00,meteohub,2013-01-11 05:56:00,
2013-01-11 01:02:00,21.2,13.6,28.75,South,180,2.0,2.0,72,0.00,,,0.00,meteohub,2013-01-11 06:02:00,
2013-01-11 01:07:00,21.2,13.6,28.76,SW,225,2.0,2.0,72,0.00,,,0.00,meteohub,2013-01-11 06:07:00,
2013-01-11 01:12:00,21.4,14.0,28.75,SE,135,1.0,2.0,73,0.00,,,0.00,meteohub,2013-01-11 06:12:00,
2013-01-11 01:17:00,21.6,14.2,28.76,North,0,1.0,2.0,73,0.00,,,0.00,meteohub,2013-01-11 06:17:00,
2013-01-11 01:22:00,21.4,14.0,28.75,SE,135,0.0,2.0,73,0.00,,,0.00,meteohub,2013-01-11 06:22:00,
2013-01-11 01:27:00,21.4,14.0,28.76,SW,225,2.0,2.0,73,0.00,,,0.00,meteohub,2013-01-11 06:27:00,
2013-01-11 01:32:00,21.6,14.2,28.75,SW,225,2.0,2.0,73,0.00,,,0.00,meteohub,2013-01-11 06:32:00,
2013-01-11 01:38:00,21.6,14.2,28.76,SE,135,2.0,2.0,73,0.00,,,0.00,meteohub,2013-01-11 06:38:00,
2013-01-11 01:43:00,21.7,14.4,28.75,SE,135,2.0,2.0,73,0.00,,,0.00,meteohub,2013-01-11 06:43:00,
2013-01-11 01:48:00,21.4,14.0,28.75,SE,135,2.0,2.0,73,0.00,,,0.00,meteohub,2013-01-11 06:48:00,
2013-01-11 01:53:00,21.4,14.0,28.75,SW,225,2.0,2.0,73,0.00,,,0.00,meteohub,2013-01-11 06:53:00,
2013-01-11 01:58:00,21.6,14.2,28.75,SW,225,2.0,2.0,73,0.00,,,0.00,meteohub,2013-01-11 06:58:00,
2013-01-11 02:03:00,21.6,14.2,28.74,West,270,2.0,2.0,73,0.00,,,0.00,meteohub,2013-01-11 07:03:00,
2013-01-11 02:08:00,21.7,14.4,28.73,SW,225,1.0,2.0,73,0.00,,,0.00,meteohub,2013-01-11 07:08:00,
2013-01-11 02:13:00,21.7,14.4,28.73,SE,135,2.0,2.0,73,0.00,,,0.00,meteohub,2013-01-11 07:13:00,
2013-01-11 02:18:00,21.6,14.5,28.73,SE,135,2.0,2.0,74,0.00,,,0.00,meteohub,2013-01-11 07:18:00,
2013-01-11 02:23:00,21.4,14.4,28.73,NW,315,2.0,2.0,74,0.00,,,0.00,meteohub,2013-01-11 07:23:00,
2013-01-11 02:28:00,21.4,14.4,28.72,North,0,2.0,2.0,74,0.00,,,0.00,meteohub,2013-01-11 07:28:00,
2013-01-11 02:33:00,21.4,14.4,28.72,North,0,2.0,3.0,74,0.00,,,0.00,meteohub,2013-01-11 07:33:00,
2013-01-11 02:39:00,21.4,14.4,28.72,South,180,2.0,3.0,74,0.00,,,0.00,meteohub,2013-01-11 07:39:00,
2013-01-11 02:44:00,21.4,14.4,28.72,South,180,2.0,3.0,74,0.00,,,0.00,meteohub,2013-01-11 07:44:00,
2013-01-11 02:49:00,21.6,14.5,28.71,SE,135,2.0,2.0,74,0.00,,,0.00,meteohub,2013-01-11 07:49:00,
2013-01-11 02:54:00,21.6,14.5,28.71,SW,225,2.0,2.0,74,0.00,,,0.00,meteohub,2013-01-11 07:54:00,
2013-01-11 02:59:00,21.4,14.4,28.71,West,270,2.0,2.0,74,0.00,,,0.00,meteohub,2013-01-11 07:59:00,
2013-01-11 03:04:00,21.4,14.4,28.71,SE,135,1.0,2.0,74,0.00,,,0.00,meteohub,2013-01-11 08:04:00,
2013-01-11 03:09:00,21.2,14.2,28.71,SE,135,3.0,3.0,74,0.00,,,0.00,meteohub,2013-01-11 08:09:00,
2013-01-11 03:14:00,21.0,14.4,28.71,SW,225,2.0,3.0,75,0.00,,,0.00,meteohub,2013-01-11 08:14:00,
2013-01-11 03:19:00,21.2,14.2,28.70,South,180,2.0,3.0,74,0.00,,,0.00,meteohub,2013-01-11 08:19:00,
2013-01-11 03:24:00,21.2,14.2,28.70,South,180,2.0,3.0,74,0.00,,,0.00,meteohub,2013-01-11 08:24:00,
2013-01-11 03:29:00,21.4,14.4,28.69,South,180,4.0,4.0,74,0.00,,,0.00,meteohub,2013-01-11 08:29:00,
2013-01-11 03:34:00,21.6,14.9,28.69,SSE,158,3.0,5.0,75,0.00,,,0.00,meteohub,2013-01-11 08:34:00,
2013-01-11 03:39:00,21.6,14.9,28.69,South,180,2.0,5.0,75,0.00,,,0.00,meteohub,2013-01-11 08:39:00,
2013-01-11 03:44:00,21.7,15.1,28.69,SW,225,2.0,5.0,75,0.00,,,0.00,meteohub,2013-01-11 08:44:00,
2013-01-11 03:49:00,21.7,14.7,28.68,SE,135,3.0,4.0,74,0.00,,,0.00,meteohub,2013-01-11 08:49:00,
2013-01-11 03:55:00,21.7,14.7,28.68,SE,135,4.0,4.0,74,0.00,,,0.00,meteohub,2013-01-11 08:55:00,
2013-01-11 04:00:00,21.9,14.9,28.68,SE,135,3.0,4.0,74,0.00,,,0.00,meteohub,2013-01-11 09:00:00,
2013-01-11 04:05:00,21.9,14.9,28.68,SE,135,2.0,4.0,74,0.00,,,0.00,meteohub,2013-01-11 09:05:00,
2013-01-11 04:10:00,22.3,15.3,28.68,South,180,8.0,8.0,74,0.00,,,0.00,meteohub,2013-01-11 09:10:00,
2013-01-11 04:15:00,22.8,15.8,28.68,SW,225,2.0,11.0,74,0.00,,,0.00,meteohub,2013-01-11 09:15:00,
2013-01-11 04:20:00,23.0,15.6,28.68,South,180,2.0,11.0,73,0.00,,,0.00,meteohub,2013-01-11 09:20:00,
2013-01-11 04:25:00,23.0,15.3,28.68,SE,135,2.0,8.0,72,0.00,,,0.00,meteohub,2013-01-11 09:25:00,
2013-01-11 04:30:00,23.0,15.3,28.67,NW,315,2.0,4.0,72,0.00,,,0.00,meteohub,2013-01-11 09:30:00,
2013-01-11 04:35:00,22.8,15.1,28.67,NE,45,2.0,4.0,72,0.00,,,0.00,meteohub,2013-01-11 09:35:00,
2013-01-11 04:40:00,22.5,14.7,28.66,NE,45,3.0,3.0,72,0.00,,,0.00,meteohub,2013-01-11 09:40:00,
2013-01-11 04:45:00,21.7,13.8,28.66,SW,225,2.0,3.0,71,0.00,,,0.00,meteohub,2013-01-11 09:45:00,
2013-01-11 04:50:00,21.4,13.5,28.65,East,90,2.0,3.0,71,0.00,,,0.00,meteohub,2013-01-11 09:50:00,
2013-01-11 04:55:00,21.2,13.3,28.65,West,270,2.0,4.0,71,0.00,,,0.00,meteohub,2013-01-11 09:55:00,
2013-01-11 05:00:00,21.2,13.6,28.65,NW,315,2.0,4.0,72,0.00,,,0.00,meteohub,2013-01-11 10:00:00,
2013-01-11 05:06:00,20.8,13.6,28.65,North,0,2.0,4.0,73,0.00,,,0.00,meteohub,2013-01-11 10:06:00,
2013-01-11 05:11:00,20.8,13.6,28.65,NE,45,2.0,4.0,73,0.00,,,0.00,meteohub,2013-01-11 10:11:00,
2013-01-11 05:16:00,20.7,13.5,28.66,SW,225,2.0,4.0,73,0.00,,,0.00,meteohub,2013-01-11 10:16:00,
2013-01-11 05:21:00,20.7,13.5,28.65,SE,135,1.0,4.0,73,0.00,,,0.00,meteohub,2013-01-11 10:21:00,
2013-01-11 05:26:00,20.7,13.5,28.65,NW,315,2.0,3.0,73,0.00,,,0.00,meteohub,2013-01-11 10:26:00,
2013-01-11 05:31:00,20.5,13.3,28.64,NW,315,2.0,3.0,73,0.00,,,0.00,meteohub,2013-01-11 10:31:00,
2013-01-11 05:36:00,20.5,13.3,28.64,North,0,2.0,3.0,73,0.00,,,0.00,meteohub,2013-01-11 10:36:00,
2013-01-11 05:41:00,20.5,13.3,28.64,North,0,2.0,3.0,73,0.00,,,0.00,meteohub,2013-01-11 10:41:00,
2013-01-11 05:46:00,20.5,13.5,28.64,NW,315,4.0,4.0,74,0.00,,,0.00,meteohub,2013-01-11 10:46:00,
2013-01-11 05:52:00,20.8,13.8,28.64,North,0,2.0,4.0,74,0.00,,,0.00,meteohub,2013-01-11 10:52:00,
2013-01-11 05:57:00,21.0,14.0,28.64,North,0,2.0,4.0,74,0.00,,,0.00,meteohub,2013-01-11 10:57:00,
2013-01-11 06:02:00,21.0,14.0,28.64,NE,45,3.0,4.0,74,0.00,,,0.00,meteohub,2013-01-11 11:02:00,
2013-01-11 06:07:00,21.2,14.2,28.63,North,0,4.0,4.0,74,0.00,,,0.00,meteohub,2013-01-11 11:07:00,
2013-01-11 06:12:00,21.4,14.4,28.64,North,0,4.0,4.0,74,0.00,,,0.00,meteohub,2013-01-11 11:12:00,
2013-01-11 06:17:00,21.4,14.4,28.64,South,180,2.0,4.0,74,0.00,,,0.00,meteohub,2013-01-11 11:17:00,
2013-01-11 06:22:00,21.6,14.5,28.64,North,0,4.0,4.0,74,0.00,,,0.00,meteohub,2013-01-11 11:22:00,
2013-01-11 06:27:00,21.6,14.5,28.64,SW,225,2.0,4.0,74,0.00,,,0.00,meteohub,2013-01-11 11:27:00,
2013-01-11 06:32:00,21.7,14.7,28.64,WNW,293,3.0,4.0,74,0.00,,,0.00,meteohub,2013-01-11 11:32:00,
2013-01-11 06:37:00,21.7,14.7,28.64,SSE,158,2.0,4.0,74,0.00,,,0.00,meteohub,2013-01-11 11:37:00,
2013-01-11 06:43:00,21.9,14.9,28.64,NE,45,3.0,4.0,74,0.00,,,0.00,meteohub,2013-01-11 11:43:00,
2013-01-11 06:48:00,22.1,15.1,28.63,SW,225,2.0,4.0,74,0.00,,,0.00,meteohub,2013-01-11 11:48:00,
2013-01-11 06:53:00,22.3,15.3,28.64,NE,45,2.0,4.0,74,0.00,,,0.00,meteohub,2013-01-11 11:53:00,
2013-01-11 06:58:00,22.5,15.4,28.64,NE,45,0.0,4.0,74,0.00,,,0.00,meteohub,2013-01-11 11:58:00,
2013-01-11 07:03:00,22.6,15.6,28.63,NW,315,2.0,4.0,74,0.00,,,0.00,meteohub,2013-01-11 12:03:00,
2013-01-11 07:08:00,22.8,15.8,28.64,SE,135,2.0,4.0,74,0.00,,,0.00,meteohub,2013-01-11 12:08:00,
2013-01-11 07:13:00,23.0,15.6,28.64,North,0,4.0,5.0,73,0.00,,,0.00,meteohub,2013-01-11 12:13:00,
2013-01-11 07:18:00,23.2,15.4,28.64,NE,45,1.0,5.0,72,0.00,,,0.00,meteohub,2013-01-11 12:18:00,
2013-01-11 07:23:00,23.4,15.6,28.63,NE,45,3.0,5.0,72,0.00,,,0.00,meteohub,2013-01-11 12:23:00,
2013-01-11 07:28:00,23.5,15.8,28.63,NW,315,2.0,5.0,72,0.00,,,0.00,meteohub,2013-01-11 12:28:00,
2013-01-11 07:33:00,23.7,16.0,28.63,West,270,3.0,4.0,72,0.00,,,0.00,meteohub,2013-01-11 12:33:00,
2013-01-11 07:38:00,24.1,16.0,28.63,NW,315,3.0,4.0,71,0.00,,,0.00,meteohub,2013-01-11 12:38:00,
2013-01-11 07:44:00,24.4,16.3,28.63,West,270,4.0,4.0,71,0.00,,,0.00,meteohub,2013-01-11 12:44:00,
2013-01-11 07:49:00,24.8,16.2,28.63,SW,225,4.0,4.0,69,0.00,,,0.00,meteohub,2013-01-11 12:49:00,
2013-01-11 07:54:00,25.0,16.0,28.63,SE,135,2.0,5.0,68,0.00,,,0.00,meteohub,2013-01-11 12:54:00,
2013-01-11 07:59:00,25.2,15.8,28.63,NE,45,2.0,5.0,67,0.00,,,0.00,meteohub,2013-01-11 12:59:00,
2013-01-11 08:04:00,25.5,16.2,28.63,NW,315,2.0,5.0,67,0.00,,,0.00,meteohub,2013-01-11 13:04:00,
2013-01-11 08:09:00,25.7,15.6,28.63,North,0,2.0,4.0,65,0.00,,,0.00,meteohub,2013-01-11 13:09:00,
2013-01-11 08:14:00,25.9,15.4,28.62,North,0,3.0,5.0,64,0.00,,,0.00,meteohub,2013-01-11 13:14:00,
2013-01-11 08:19:00,26.1,15.6,28.62,SE,135,2.0,5.0,64,0.00,,,0.00,meteohub,2013-01-11 13:19:00,
2013-01-11 08:24:00,26.2,15.4,28.63,NW,315,2.0,5.0,63,0.00,,,0.00,meteohub,2013-01-11 13:24:00,
2013-01-11 08:29:00,27.0,15.3,28.62,East,90,4.0,5.0,61,0.00,,,0.00,meteohub,2013-01-11 13:29:00,
2013-01-11 08:34:00,28.6,17.2,28.62,SW,225,4.0,5.0,62,0.00,,,0.00,meteohub,2013-01-11 13:34:00,
2013-01-11 08:40:00,29.3,16.7,28.61,SW,225,3.0,5.0,59,0.00,,,0.00,meteohub,2013-01-11 13:40:00,
2013-01-11 08:45:00,31.3,15.6,28.61,South,180,7.0,7.0,52,0.00,,,0.00,meteohub,2013-01-11 13:45:00,
2013-01-11 08:50:00,33.8,13.6,28.61,SE,135,8.0,11.0,43,0.00,,,0.00,meteohub,2013-01-11 13:50:00,
2013-01-11 08:55:00,35.4,13.5,28.61,East,90,15.0,15.0,40,0.00,,,0.00,meteohub,2013-01-11 13:55:00,
2013-01-11 09:00:00,36.7,12.2,28.60,SW,225,11.0,15.0,36,0.00,,,0.00,meteohub,2013-01-11 14:00:00,
2013-01-11 09:05:00,36.7,13.5,28.60,North,0,5.0,15.0,38,0.00,,,0.00,meteohub,2013-01-11 14:05:00,
2013-01-11 09:10:00,36.7,12.9,28.60,North,0,5.0,15.0,37,0.00,,,0.00,meteohub,2013-01-11 14:10:00,
2013-01-11 09:15:00,36.1,11.8,28.60,NE,45,4.0,11.0,36,0.00,,,0.00,meteohub,2013-01-11 14:15:00,
2013-01-11 09:20:00,36.7,11.7,28.60,SW,225,8.0,11.0,35,0.00,,,0.00,meteohub,2013-01-11 14:20:00,
2013-01-11 09:25:00,37.0,10.6,28.60,South,180,8.0,11.0,33,0.00,,,0.00,meteohub,2013-01-11 14:25:00,
2013-01-11 09:30:00,37.8,11.3,28.60,South,180,13.0,13.0,33,0.00,,,0.00,meteohub,2013-01-11 14:30:00,
2013-01-11 09:35:00,38.3,10.9,28.60,SW,225,8.0,13.0,32,0.00,,,0.00,meteohub,2013-01-11 14:35:00,
2013-01-11 09:40:00,38.3,10.9,28.59,SSE,158,15.0,15.0,32,0.00,,,0.00,meteohub,2013-01-11 14:40:00,
2013-01-11 09:45:00,38.3,10.9,28.61,SE,135,9.0,15.0,32,0.00,,,0.00,meteohub,2013-01-11 14:45:00,
2013-01-11 09:51:00,38.5,10.4,28.61,North,0,6.0,15.0,31,0.00,,,0.00,meteohub,2013-01-11 14:51:00,
2013-01-11 09:56:00,38.7,9.9,28.61,SW,225,4.0,15.0,30,0.00,,,0.00,meteohub,2013-01-11 14:56:00,
2013-01-11 10:01:00,39.2,9.7,28.61,SE,135,6.0,14.0,29,0.00,,,0.00,meteohub,2013-01-11 15:01:00,
2013-01-11 10:06:00,39.0,11.7,28.61,NW,315,2.0,8.0,32,0.00,,,0.00,meteohub,2013-01-11 15:06:00,
2013-01-11 10:11:00,38.5,13.3,28.60,East,90,6.0,12.0,35,0.00,,,0.00,meteohub,2013-01-11 15:11:00,
2013-01-11 10:16:00,37.8,13.8,28.61,SW,225,8.0,12.0,37,0.00,,,0.00,meteohub,2013-01-11 15:16:00,
2013-01-11 10:21:00,37.6,14.2,28.60,NE,45,2.0,12.0,38,0.00,,,0.00,meteohub,2013-01-11 15:21:00,
2013-01-11 10:26:00,37.4,15.3,28.58,SSE,158,5.0,9.0,40,0.00,,,0.00,meteohub,2013-01-11 15:26:00,
2013-01-11 10:31:00,37.2,12.0,28.59,SE,135,7.0,8.0,35,0.00,,,0.00,meteohub,2013-01-11 15:31:00,
2013-01-11 10:36:00,37.4,14.2,28.58,SW,225,4.0,8.0,38,0.00,,,0.00,meteohub,2013-01-11 15:36:00,
2013-01-11 10:41:00,37.4,14.7,28.58,East,90,5.0,8.0,39,0.00,,,0.00,meteohub,2013-01-11 15:41:00,
2013-01-11 10:46:00,37.4,15.3,28.58,SE,135,4.0,8.0,40,0.00,,,0.00,meteohub,2013-01-11 15:46:00,
2013-01-11 10:51:00,37.4,15.3,28.57,East,90,8.0,8.0,40,0.00,,,0.00,meteohub,2013-01-11 15:51:00,
2013-01-11 10:56:00,37.2,12.0,28.57,SE,135,14.0,14.0,35,0.00,,,0.00,meteohub,2013-01-11 15:56:00,
2013-01-11 11:02:00,37.2,13.3,28.56,SSE,158,3.0,14.0,37,0.00,,,0.00,meteohub,2013-01-11 16:02:00,
2013-01-11 11:07:00,37.0,13.8,28.56,South,180,6.0,14.0,38,0.00,,,0.00,meteohub,2013-01-11 16:07:00,
2013-01-11 11:12:00,36.9,13.6,28.55,SE,135,11.0,14.0,38,0.00,,,0.00,meteohub,2013-01-11 16:12:00,
2013-01-11 11:17:00,36.7,12.2,28.54,ESE,113,7.0,17.0,36,0.00,,,0.00,meteohub,2013-01-11 16:17:00,
2013-01-11 11:22:00,36.7,13.5,28.53,SE,135,8.0,17.0,38,0.00,,,0.00,meteohub,2013-01-11 16:22:00,
2013-01-11 11:27:00,36.7,13.5,28.53,SE,135,13.0,17.0,38,0.00,,,0.00,meteohub,2013-01-11 16:27:00,
2013-01-11 11:32:00,36.7,12.2,28.53,North,0,9.0,17.0,36,0.00,,,0.00,meteohub,2013-01-11 16:32:00,
2013-01-11 11:37:00,36.9,11.8,28.52,South,180,17.0,17.0,35,0.00,,,0.00,meteohub,2013-01-11 16:37:00,
2013-01-11 11:42:00,37.0,11.8,28.52,North,0,11.0,21.0,35,0.00,,,0.00,meteohub,2013-01-11 16:42:00,
2013-01-11 11:47:00,37.0,11.8,28.52,SE,135,15.0,21.0,35,0.00,,,0.00,meteohub,2013-01-11 16:47:00,
2013-01-11 11:52:00,37.0,11.8,28.53,SE,135,15.0,21.0,35,0.00,,,0.00,meteohub,2013-01-11 16:52:00,
2013-01-11 11:57:00,36.9,11.8,28.52,North,0,5.0,21.0,35,0.00,,,0.00,meteohub,2013-01-11 16:57:00,
2013-01-11 12:02:00,36.7,13.5,28.52,South,180,3.0,17.0,38,0.00,,,0.00,meteohub,2013-01-11 17:02:00,
2013-01-11 12:07:00,36.9,13.6,28.52,South,180,12.0,17.0,38,0.00,,,0.00,meteohub,2013-01-11 17:07:00,
2013-01-11 12:12:00,36.9,13.6,28.51,West,270,8.0,12.0,38,0.00,,,0.00,meteohub,2013-01-11 17:12:00,
2013-01-11 12:17:00,36.9,13.6,28.51,NW,315,9.0,15.0,38,0.00,,,0.00,meteohub,2013-01-11 17:17:00,
2013-01-11 12:22:00,36.9,14.2,28.52,SW,225,11.0,15.0,39,0.00,,,0.00,meteohub,2013-01-11 17:22:00,
2013-01-11 12:27:00,37.0,14.4,28.51,SSW,203,7.0,15.0,39,0.00,,,0.00,meteohub,2013-01-11 17:27:00,
2013-01-11 12:32:00,36.9,14.7,28.51,East,90,7.0,12.0,40,0.00,,,0.00,meteohub,2013-01-11 17:32:00,
2013-01-11 12:37:00,36.9,15.4,28.50,East,90,5.0,11.0,41,0.00,,,0.00,meteohub,2013-01-11 17:37:00,
2013-01-11 12:42:00,36.9,15.4,28.49,SE,135,13.0,13.0,41,0.00,,,0.00,meteohub,2013-01-11 17:42:00,
2013-01-11 12:47:00,36.9,15.4,28.49,NE,45,11.0,15.0,41,0.00,,,0.00,meteohub,2013-01-11 17:47:00,
2013-01-11 12:52:00,36.9,16.5,28.49,West,270,4.0,15.0,43,0.00,,,0.00,meteohub,2013-01-11 17:52:00,
2013-01-11 12:57:00,36.9,16.5,28.50,SW,225,18.0,18.0,43,0.00,,,0.00,meteohub,2013-01-11 17:57:00,
2013-01-11 13:02:00,37.2,17.2,28.49,West,270,10.0,18.0,44,0.00,,,0.00,meteohub,2013-01-11 18:02:00,
2013-01-11 13:07:00,37.2,18.3,28.49,SSE,158,13.0,18.0,46,0.00,,,0.00,meteohub,2013-01-11 18:07:00,
2013-01-11 13:12:00,37.0,18.7,28.48,SE,135,9.0,18.0,47,0.00,,,0.00,meteohub,2013-01-11 18:12:00,
2013-01-11 13:17:00,36.9,19.0,28.48,South,180,9.0,19.0,48,0.00,,,0.00,meteohub,2013-01-11 18:17:00,
2013-01-11 13:22:00,36.9,19.0,28.48,North,0,12.0,19.0,48,0.00,,,0.00,meteohub,2013-01-11 18:22:00,
2013-01-11 13:27:00,36.9,19.4,28.48,SE,135,15.0,19.0,49,0.00,,,0.00,meteohub,2013-01-11 18:27:00,
2013-01-11 13:32:00,37.0,19.6,28.49,South,180,13.0,19.0,49,0.00,,,0.00,meteohub,2013-01-11 18:32:00,
2013-01-11 13:37:00,37.0,19.6,28.49,NE,45,12.0,21.0,49,0.00,,,0.00,meteohub,2013-01-11 18:37:00,
2013-01-11 13:42:00,37.0,20.1,28.49,ENE,68,14.0,21.0,50,0.00,,,0.00,meteohub,2013-01-11 18:42:00,
2013-01-11 13:47:00,37.2,19.4,28.48,East,90,12.0,21.0,48,0.00,,,0.00,meteohub,2013-01-11 18:47:00,
2013-01-11 13:52:00,37.2,19.8,28.48,SE,135,13.0,17.0,49,0.00,,,0.00,meteohub,2013-01-11 18:52:00,
2013-01-11 13:57:00,37.2,19.8,28.47,NE,45,14.0,17.0,49,0.00,,,0.00,meteohub,2013-01-11 18:57:00,
2013-01-11 14:02:00,37.0,20.1,28.47,South,180,10.0,17.0,50,0.00,,,0.00,meteohub,2013-01-11 19:02:00,
2013-01-11 14:07:00,36.7,20.3,28.48,SE,135,17.0,17.0,51,0.00,,,0.00,meteohub,2013-01-11 19:07:00,
2013-01-11 14:12:00,36.5,20.5,28.47,South,180,9.0,21.0,52,0.00,,,0.00,meteohub,2013-01-11 19:12:00,
2013-01-11 14:17:00,36.3,22.1,28.48,SE,135,8.0,21.0,56,0.00,,,0.00,meteohub,2013-01-11 19:17:00,
2013-01-11 14:22:00,36.1,22.8,28.48,South,180,11.0,21.0,58,0.00,,,0.00,meteohub,2013-01-11 19:22:00,
2013-01-11 14:27:00,35.6,23.5,28.48,ENE,68,17.0,20.0,61,0.01,,,0.00,meteohub,2013-01-11 19:27:00,
2013-01-11 14:32:00,35.8,24.1,28.48,NE,45,4.0,20.0,62,0.01,,,0.01,meteohub,2013-01-11 19:32:00,
2013-01-11 14:37:00,35.8,24.1,28.47,East,90,9.0,20.0,62,0.01,,,0.01,meteohub,2013-01-11 19:37:00,
2013-01-11 14:42:00,35.6,24.3,28.47,South,180,5.0,20.0,63,0.01,,,0.01,meteohub,2013-01-11 19:42:00,
2013-01-11 14:47:00,35.6,24.6,28.47,East,90,8.0,19.0,64,0.02,,,0.02,meteohub,2013-01-11 19:47:00,
2013-01-11 14:52:00,35.4,25.5,28.46,NE,45,10.0,15.0,67,0.02,,,0.02,meteohub,2013-01-11 19:52:00,
2013-01-11 14:57:00,35.4,26.2,28.45,SE,135,5.0,15.0,69,0.02,,,0.02,meteohub,2013-01-11 19:57:00,
2013-01-11 15:02:00,35.4,26.6,28.45,East,90,8.0,15.0,70,0.02,,,0.02,meteohub,2013-01-11 20:02:00,
2013-01-11 15:07:00,35.6,26.4,28.45,ESE,113,7.0,11.0,69,0.02,,,0.02,meteohub,2013-01-11 20:07:00,
2013-01-11 15:12:00,36.0,26.8,28.45,East,90,15.0,15.0,69,0.02,,,0.02,meteohub,2013-01-11 20:12:00,
2013-01-11 15:17:00,36.1,26.2,28.45,ESE,113,10.0,20.0,67,0.02,,,0.02,meteohub,2013-01-11 20:17:00,
2013-01-11 15:22:00,36.3,25.3,28.44,ESE,113,16.0,20.0,64,0.02,,,0.02,meteohub,2013-01-11 20:22:00,
2013-01-11 15:27:00,36.3,25.3,28.44,East,90,12.0,20.0,64,0.01,,,0.02,meteohub,2013-01-11 20:27:00,
2013-01-11 15:32:00,36.3,25.3,28.44,South,180,8.0,16.0,64,0.01,,,0.02,meteohub,2013-01-11 20:32:00,
2013-01-11 15:37:00,36.7,25.0,28.43,ESE,113,6.0,17.0,62,0.01,,,0.02,meteohub,2013-01-11 20:37:00,
2013-01-11 15:42:00,37.0,24.8,28.43,WSW,248,7.0,17.0,61,0.01,,,0.02,meteohub,2013-01-11 20:42:00,
2013-01-11 15:47:00,37.2,24.6,28.43,NE,45,11.0,17.0,60,0.00,,,0.02,meteohub,2013-01-11 20:47:00,
2013-01-11 15:52:00,37.8,25.9,28.43,ESE,113,17.0,17.0,62,0.00,,,0.02,meteohub,2013-01-11 20:52:00,
2013-01-11 15:57:00,38.3,25.7,28.43,ESE,113,6.0,17.0,60,0.00,,,0.02,meteohub,2013-01-11 20:57:00,
2013-01-11 16:02:00,38.7,25.5,28.43,East,90,9.0,17.0,59,0.00,,,0.02,meteohub,2013-01-11 21:02:00,
2013-01-11 16:07:00,38.7,26.8,28.43,ESE,113,13.0,17.0,62,0.00,,,0.02,meteohub,2013-01-11 21:07:00,
2013-01-11 16:12:00,38.7,27.1,28.42,South,180,10.0,14.0,63,0.00,,,0.02,meteohub,2013-01-11 21:12:00,
2013-01-11 16:17:00,39.0,27.5,28.43,SE,135,9.0,14.0,63,0.00,,,0.02,meteohub,2013-01-11 21:17:00,
2013-01-11 16:22:00,38.7,27.9,28.42,ENE,68,12.0,13.0,65,0.00,,,0.02,meteohub,2013-01-11 21:22:00,
2013-01-11 16:27:00,37.9,28.4,28.43,East,90,7.0,12.0,68,0.00,,,0.02,meteohub,2013-01-11 21:27:00,
2013-01-11 16:32:00,37.9,29.3,28.43,West,270,11.0,21.0,71,0.00,,,0.02,meteohub,2013-01-11 21:32:00,
2013-01-11 16:37:00,38.3,29.7,28.43,South,180,17.0,21.0,71,0.00,,,0.02,meteohub,2013-01-11 21:37:00,
2013-01-11 16:42:00,38.7,30.4,28.43,East,90,7.0,25.0,72,0.00,,,0.02,meteohub,2013-01-11 21:42:00,
2013-01-11 16:47:00,38.5,30.2,28.42,ENE,68,8.0,25.0,72,0.00,,,0.02,meteohub,2013-01-11 21:47:00,
2013-01-11 16:52:00,37.8,29.5,28.42,West,270,17.0,25.0,72,0.00,,,0.02,meteohub,2013-01-11 21:52:00,
2013-01-11 16:57:00,38.1,30.2,28.43,SW,225,9.0,25.0,73,0.00,,,0.02,meteohub,2013-01-11 21:57:00,
2013-01-11 17:02:00,38.7,31.1,28.42,SE,135,15.0,17.0,74,0.00,,,0.02,meteohub,2013-01-11 22:02:00,
2013-01-11 17:07:00,38.8,31.3,28.42,South,180,4.0,17.0,74,0.00,,,0.02,meteohub,2013-01-11 22:07:00,
2013-01-11 17:12:00,38.7,31.1,28.42,SE,135,19.0,19.0,74,0.01,,,0.04,meteohub,2013-01-11 22:12:00,
2013-01-11 17:17:00,39.0,31.5,28.40,SE,135,11.0,19.0,74,0.01,,,0.04,meteohub,2013-01-11 22:17:00,
2013-01-11 17:22:00,39.2,31.3,28.41,South,180,6.0,19.0,73,0.01,,,0.04,meteohub,2013-01-11 22:22:00,
2013-01-11 17:27:00,39.0,31.8,28.41,SE,135,9.0,19.0,75,0.01,,,0.04,meteohub,2013-01-11 22:27:00,
2013-01-11 17:32:00,38.8,32.0,28.41,East,90,5.0,14.0,76,0.02,,,0.05,meteohub,2013-01-11 22:32:00,
2013-01-11 17:37:00,38.8,32.0,28.42,NE,45,8.0,13.0,76,0.02,,,0.05,meteohub,2013-01-11 22:37:00,
2013-01-11 17:42:00,38.5,31.6,28.41,NE,45,11.0,17.0,76,0.02,,,0.05,meteohub,2013-01-11 22:42:00,
2013-01-11 17:47:00,37.9,31.5,28.41,SE,135,8.0,17.0,77,0.04,,,0.06,meteohub,2013-01-11 22:47:00,
2013-01-11 17:52:00,37.8,31.8,28.40,SE,135,8.0,17.0,79,0.04,,,0.06,meteohub,2013-01-11 22:52:00,
2013-01-11 17:57:00,37.9,32.4,28.41,South,180,14.0,15.0,80,0.04,,,0.06,meteohub,2013-01-11 22:57:00,
2013-01-11 18:02:00,37.9,32.4,28.41,SE,135,7.0,14.0,80,0.04,,,0.06,meteohub,2013-01-11 23:02:00,
2013-01-11 18:07:00,38.3,32.4,28.40,South,180,9.0,21.0,79,0.05,,,0.07,meteohub,2013-01-11 23:07:00,
2013-01-11 18:12:00,38.7,32.4,28.39,SW,225,4.0,21.0,78,0.04,,,0.07,meteohub,2013-01-11 23:12:00,
2013-01-11 18:17:00,38.8,32.5,28.40,East,90,8.0,21.0,78,0.05,,,0.08,meteohub,2013-01-11 23:17:00,
2013-01-11 18:22:00,39.0,32.7,28.40,SE,135,8.0,14.0,78,0.06,,,0.09,meteohub,2013-01-11 23:22:00,
2013-01-11 18:27:00,38.8,32.5,28.40,SSE,158,8.0,12.0,78,0.06,,,0.09,meteohub,2013-01-11 23:27:00,
2013-01-11 18:32:00,38.7,32.4,28.40,SSW,203,11.0,11.0,78,0.05,,,0.09,meteohub,2013-01-11 23:32:00,
2013-01-11 18:37:00,38.7,32.7,28.40,SE,135,7.0,11.0,79,0.05,,,0.09,meteohub,2013-01-11 23:37:00,
2013-01-11 18:42:00,38.8,32.9,28.39,South,180,8.0,23.0,79,0.06,,,0.11,meteohub,2013-01-11 23:42:00,
2013-01-11 18:47:00,38.8,32.9,28.39,South,180,13.0,23.0,79,0.05,,,0.11,meteohub,2013-01-11 23:47:00,
2013-01-11 18:52:00,39.2,32.9,28.38,East,90,10.0,23.0,78,0.05,,,0.11,meteohub,2013-01-11 23:52:00,
2013-01-11 18:57:00,39.6,32.9,28.39,SW,225,8.0,17.0,77,0.05,,,0.11,meteohub,2013-01-11 23:57:00,
2013-01-11 19:02:00,39.6,32.9,28.39,East,90,11.0,17.0,77,0.05,,,0.11,meteohub,2013-01-12 00:02:00,
2013-01-11 19:07:00,39.7,33.1,28.39,SW,225,6.0,16.0,77,0.04,,,0.11,meteohub,2013-01-12 00:07:00,
2013-01-11 19:12:00,39.6,32.9,28.38,SE,135,8.0,16.0,77,0.04,,,0.11,meteohub,2013-01-12 00:12:00,
2013-01-11 19:17:00,39.2,32.9,28.39,SE,135,6.0,16.0,78,0.02,,,0.11,meteohub,2013-01-12 00:17:00,
2013-01-11 19:22:00,39.0,33.4,28.39,SE,135,6.0,16.0,80,0.01,,,0.11,meteohub,2013-01-12 00:22:00,
2013-01-11 19:27:00,39.0,33.4,28.39,ENE,68,6.0,13.0,80,0.01,,,0.11,meteohub,2013-01-12 00:27:00,
2013-01-11 19:32:00,38.5,32.9,28.39,East,90,7.0,14.0,80,0.01,,,0.11,meteohub,2013-01-12 00:32:00,
2013-01-11 19:37:00,38.3,33.3,28.37,NE,45,15.0,15.0,82,0.01,,,0.11,meteohub,2013-01-12 00:37:00,
2013-01-11 19:42:00,38.7,33.6,28.37,ESE,113,17.0,20.0,82,0.00,,,0.11,meteohub,2013-01-12 00:42:00,
2013-01-11 19:47:00,38.7,33.6,28.37,ESE,113,11.0,23.0,82,0.00,,,0.11,meteohub,2013-01-12 00:47:00,
2013-01-11 19:52:00,39.0,34.0,28.37,SE,135,16.0,23.0,82,0.00,,,0.11,meteohub,2013-01-12 00:52:00,
2013-01-11 19:57:00,38.8,33.4,28.36,East,90,15.0,23.0,81,0.00,,,0.11,meteohub,2013-01-12 00:57:00,
2013-01-11 20:02:00,38.8,33.4,28.36,East,90,18.0,19.0,81,0.00,,,0.11,meteohub,2013-01-12 01:02:00,
2013-01-11 20:07:00,38.8,33.8,28.35,SW,225,17.0,19.0,82,0.00,,,0.11,meteohub,2013-01-12 01:07:00,
2013-01-11 20:12:00,38.8,33.4,28.35,SE,135,11.0,19.0,81,0.00,,,0.11,meteohub,2013-01-12 01:12:00,
2013-01-11 20:17:00,39.2,33.6,28.36,South,180,19.0,23.0,80,0.00,,,0.11,meteohub,2013-01-12 01:17:00,
2013-01-11 20:22:00,39.0,33.4,28.36,SW,225,11.0,23.0,80,0.00,,,0.11,meteohub,2013-01-12 01:22:00,
2013-01-11 20:27:00,39.0,33.6,28.37,SE,135,4.0,23.0,81,0.00,,,0.11,meteohub,2013-01-12 01:27:00,
2013-01-11 20:32:00,39.4,33.8,28.36,South,180,6.0,21.0,80,0.00,,,0.11,meteohub,2013-01-12 01:32:00,
2013-01-11 20:37:00,39.4,33.8,28.37,NE,45,4.0,21.0,80,0.00,,,0.11,meteohub,2013-01-12 01:37:00,
2013-01-11 20:42:00,39.2,33.3,28.36,South,180,8.0,17.0,79,0.00,,,0.11,meteohub,2013-01-12 01:42:00,
2013-01-11 20:47:00,39.6,34.0,28.37,East,90,4.0,17.0,80,0.00,,,0.11,meteohub,2013-01-12 01:47:00,
2013-01-11 20:52:00,39.4,33.8,28.37,East,90,8.0,15.0,80,0.00,,,0.11,meteohub,2013-01-12 01:52:00,
2013-01-11 20:57:00,39.0,33.6,28.36,East,90,10.0,10.0,81,0.00,,,0.11,meteohub,2013-01-12 01:57:00,
2013-01-11 21:02:00,39.0,34.0,28.37,South,180,5.0,13.0,82,0.00,,,0.11,meteohub,2013-01-12 02:02:00,
2013-01-11 21:07:00,39.0,34.0,28.36,SW,225,8.0,13.0,82,0.00,,,0.11,meteohub,2013-01-12 02:07:00,
2013-01-11 21:12:00,39.0,34.0,28.35,SE,135,4.0,13.0,82,0.00,,,0.11,meteohub,2013-01-12 02:12:00,
2013-01-11 21:17:00,38.8,33.8,28.35,SW,225,6.0,11.0,82,0.00,,,0.11,meteohub,2013-01-12 02:17:00,
2013-01-11 21:22:00,39.0,34.0,28.38,SE,135,7.0,14.0,82,0.00,,,0.11,meteohub,2013-01-12 02:22:00,
2013-01-11 21:27:00,39.0,34.0,28.37,East,90,11.0,14.0,82,0.00,,,0.11,meteohub,2013-01-12 02:27:00,
2013-01-11 21:32:00,39.6,34.5,28.38,SE,135,4.0,15.0,82,0.00,,,0.11,meteohub,2013-01-12 02:32:00,
2013-01-11 21:37:00,39.6,34.2,28.38,NE,45,2.0,15.0,81,0.00,,,0.11,meteohub,2013-01-12 02:37:00,
2013-01-11 21:42:00,39.4,34.0,28.38,East,90,3.0,15.0,81,0.00,,,0.11,meteohub,2013-01-12 02:42:00,
2013-01-11 21:47:00,39.2,33.8,28.38,SE,135,5.0,5.0,81,0.00,,,0.11,meteohub,2013-01-12 02:47:00,
2013-01-11 21:52:00,39.2,33.8,28.39,NW,315,3.0,5.0,81,0.00,,,0.11,meteohub,2013-01-12 02:52:00,
2013-01-11 21:57:00,39.0,34.0,28.38,ENE,68,3.0,7.0,82,0.00,,,0.11,meteohub,2013-01-12 02:57:00,
2013-01-11 22:02:00,39.0,34.3,28.38,SW,225,1.0,8.0,83,0.00,,,0.11,meteohub,2013-01-12 03:02:00,
2013-01-11 22:07:00,39.0,34.3,28.39,NE,45,3.0,8.0,83,0.00,,,0.11,meteohub,2013-01-12 03:07:00,
2013-01-11 22:12:00,39.0,34.3,28.39,SE,135,4.0,8.0,83,0.00,,,0.11,meteohub,2013-01-12 03:12:00,
2013-01-11 22:17:00,38.8,34.2,28.38,South,180,1.0,8.0,83,0.00,,,0.11,meteohub,2013-01-12 03:17:00,
2013-01-11 22:22:00,38.7,34.0,28.38,SE,135,5.0,8.0,83,0.00,,,0.11,meteohub,2013-01-12 03:22:00,
2013-01-11 22:27:00,38.5,33.8,28.38,ESE,113,3.0,6.0,83,0.00,,,0.11,meteohub,2013-01-12 03:27:00,
2013-01-11 22:32:00,38.3,34.0,28.39,West,270,2.0,7.0,84,0.00,,,0.11,meteohub,2013-01-12 03:32:00,
2013-01-11 22:37:00,38.3,34.0,28.39,East,90,6.0,7.0,84,0.00,,,0.11,meteohub,2013-01-12 03:37:00,
2013-01-11 22:42:00,38.7,34.2,28.38,SW,225,3.0,9.0,84,0.00,,,0.11,meteohub,2013-01-12 03:42:00,
2013-01-11 22:47:00,38.7,34.5,28.38,East,90,6.0,9.0,85,0.00,,,0.11,meteohub,2013-01-12 03:47:00,
2013-01-11 22:52:00,38.3,34.0,28.39,NE,45,3.0,9.0,84,0.00,,,0.11,meteohub,2013-01-12 03:52:00,
2013-01-11 22:57:00,39.0,34.9,28.38,North,0,4.0,9.0,85,0.00,,,0.11,meteohub,2013-01-12 03:57:00,
2013-01-11 23:02:00,39.2,34.7,28.38,East,90,7.0,10.0,84,0.00,,,0.11,meteohub,2013-01-12 04:02:00,
2013-01-11 23:07:00,39.4,34.7,28.39,NW,315,3.0,10.0,83,0.00,,,0.11,meteohub,2013-01-12 04:07:00,
2013-01-11 23:12:00,39.2,34.5,28.39,SW,225,2.0,10.0,83,0.00,,,0.11,meteohub,2013-01-12 04:12:00,
2013-01-11 23:17:00,39.0,34.5,28.38,SW,225,3.0,7.0,84,0.00,,,0.11,meteohub,2013-01-12 04:17:00,
2013-01-11 23:22:00,39.0,34.5,28.38,South,180,2.0,6.0,84,0.00,,,0.11,meteohub,2013-01-12 04:22:00,
2013-01-11 23:27:00,39.2,34.5,28.38,SW,225,4.0,7.0,83,0.00,,,0.11,meteohub,2013-01-12 04:27:00,
2013-01-11 23:32:00,38.8,34.3,28.36,South,180,4.0,7.0,84,0.00,,,0.11,meteohub,2013-01-12 04:32:00,
2013-01-11 23:37:00,39.2,34.5,28.37,SE,135,4.0,7.0,83,0.00,,,0.11,meteohub,2013-01-12 04:37:00,
2013-01-11 23:42:00,39.6,35.1,28.37,South,180,8.0,10.0,84,0.00,,,0.11,meteohub,2013-01-12 04:42:00,
2013-01-11 23:47:00,39.7,35.2,28.37,South,180,5.0,10.0,84,0.00,,,0.11,meteohub,2013-01-12 04:47:00,
2013-01-11 23:52:00,39.7,35.1,28.36,South,180,8.0,10.0,83,0.00,,,0.11,meteohub,2013-01-12 04:52:00,
2013-01-11 23:57:00,39.9,35.2,28.36,SE,135,5.0,11.0,83,0.00,,,0.11,meteohub,2013-01-12 04:57:00,